createdAt,value
2023-06-19T00:00:12.864Z,17.28
2023-06-19T00:01:14.463Z,17.31
2023-06-19T00:02:16.244Z,17.18
2023-06-19T00:03:17.935Z,17.13
2023-06-19T00:04:19.679Z,17.21
2023-06-19T00:05:21.322Z,17.26
2023-06-19T00:06:22.905Z,17.30
2023-06-19T00:07:24.490Z,17.27
2023-06-19T00:08:26.121Z,17.28
2023-06-19T00:09:27.756Z,17.34
2023-06-19T00:10:29.434Z,17.36
2023-06-19T00:11:31.236Z,17.37
2023-06-19T00:12:33.443Z,17.37
2023-06-19T00:13:35.037Z,17.36
2023-06-19T00:14:37.663Z,17.38
2023-06-19T00:15:39.347Z,17.38
2023-06-19T00:16:41.059Z,17.41
2023-06-19T00:17:42.864Z,17.47
2023-06-19T00:18:44.633Z,17.41
2023-06-19T00:19:46.204Z,17.32
2023-06-19T00:20:48.024Z,17.28
2023-06-19T00:21:49.813Z,17.29
2023-06-19T00:22:51.515Z,17.26
2023-06-19T00:23:53.878Z,17.25
2023-06-19T00:24:55.424Z,17.26
2023-06-19T00:25:56.971Z,17.27
2023-06-19T00:26:58.547Z,17.28
2023-06-19T00:28:00.322Z,17.28
2023-06-19T00:29:01.963Z,17.24
2023-06-19T00:30:06.747Z,17.20
2023-06-19T00:31:08.321Z,17.18
2023-06-19T00:32:09.950Z,17.19
2023-06-19T00:33:11.571Z,17.21
2023-06-19T00:34:13.161Z,17.25
2023-06-19T00:35:15.983Z,17.25
2023-06-19T00:36:17.987Z,17.27
2023-06-19T00:37:20.633Z,17.27
2023-06-19T00:38:22.341Z,17.31
2023-06-19T00:39:27.081Z,17.31
2023-06-19T00:40:31.251Z,17.30
2023-06-19T00:41:33.626Z,17.32
2023-06-19T00:42:35.231Z,17.32
2023-06-19T00:43:36.837Z,17.32
2023-06-19T00:44:38.564Z,17.27
2023-06-19T00:45:40.212Z,17.24
2023-06-19T00:46:42.157Z,17.21
2023-06-19T00:47:44.078Z,17.16
2023-06-19T00:48:45.788Z,17.16
2023-06-19T00:49:47.854Z,17.14
2023-06-19T00:50:50.794Z,17.14
2023-06-19T00:51:53.468Z,17.12
2023-06-19T00:52:55.219Z,17.07
2023-06-19T00:53:57.027Z,17.04
2023-06-19T00:54:58.741Z,17.02
2023-06-19T00:56:01.714Z,17.02
2023-06-19T00:57:03.786Z,17.02
2023-06-19T00:58:06.741Z,17.00
2023-06-19T00:59:16.447Z,17.00
2023-06-19T01:00:18.574Z,16.97
2023-06-19T01:01:21.957Z,16.86
2023-06-19T01:02:23.993Z,16.84
2023-06-19T01:03:25.752Z,16.79
2023-06-19T01:04:27.646Z,16.78
2023-06-19T01:05:31.792Z,16.74
2023-06-19T01:06:57.917Z,16.72
2023-06-19T01:08:25.437Z,16.69
2023-06-19T01:09:38.132Z,16.68
2023-06-19T01:10:44.306Z,16.68
2023-06-19T01:11:51.223Z,16.69
2023-06-19T01:13:40.488Z,16.71
2023-06-19T01:15:03.306Z,16.70
2023-06-19T01:16:06.191Z,16.71
2023-06-19T01:17:11.653Z,16.71
2023-06-19T01:18:13.870Z,16.75
2023-06-19T01:19:20.736Z,16.75
2023-06-19T01:20:22.700Z,16.59
2023-06-19T01:21:24.714Z,16.43
2023-06-19T01:22:29.093Z,16.38
2023-06-19T01:23:33.916Z,16.16
2023-06-19T01:24:36.294Z,16.10
2023-06-19T01:25:38.856Z,15.99
2023-06-19T01:26:41.992Z,15.83
2023-06-19T01:27:43.904Z,15.71
2023-06-19T01:28:46.750Z,15.61
2023-06-19T01:29:48.687Z,15.53
2023-06-19T01:30:50.725Z,15.55
2023-06-19T01:32:06.806Z,15.62
2023-06-19T01:33:21.558Z,15.71
2023-06-19T01:34:26.266Z,15.79
2023-06-19T01:35:30.708Z,15.87
2023-06-19T01:36:33.865Z,15.97
2023-06-19T01:37:36.089Z,16.07
2023-06-19T01:38:41.797Z,16.15
2023-06-19T01:39:45.999Z,16.22
2023-06-19T01:40:50.537Z,16.28
2023-06-19T01:41:54.026Z,16.37
2023-06-19T01:42:56.429Z,16.40
2023-06-19T01:43:59.094Z,16.46
2023-06-19T01:45:00.827Z,16.48
2023-06-19T01:46:02.588Z,16.48
2023-06-19T01:47:13.910Z,16.50
2023-06-19T01:48:17.654Z,16.51
2023-06-19T01:49:21.382Z,16.57
2023-06-19T01:50:24.482Z,16.57
2023-06-19T01:51:26.582Z,16.58
2023-06-19T01:52:28.186Z,16.58
2023-06-19T01:53:31.693Z,16.58
2023-06-19T01:54:33.390Z,16.55
2023-06-19T01:55:35.042Z,16.54
2023-06-19T01:56:37.791Z,16.50
2023-06-19T01:57:39.458Z,16.54
2023-06-19T01:58:41.040Z,16.53
2023-06-19T01:59:42.668Z,16.34
2023-06-19T02:00:44.312Z,16.23
2023-06-19T02:01:46.001Z,16.08
2023-06-19T02:02:47.693Z,15.88
2023-06-19T02:03:49.515Z,15.64
2023-06-19T02:04:51.265Z,15.55
2023-06-19T02:05:52.866Z,15.49
2023-06-19T02:06:55.473Z,15.51
2023-06-19T02:07:57.557Z,15.58
2023-06-19T02:08:59.254Z,15.64
2023-06-19T02:10:01.176Z,15.49
2023-06-19T02:11:02.827Z,15.50
2023-06-19T02:12:06.799Z,15.49
2023-06-19T02:13:08.556Z,15.46
2023-06-19T02:14:10.746Z,15.26
2023-06-19T02:15:12.402Z,15.16
2023-06-19T02:16:14.884Z,15.22
2023-06-19T02:17:16.577Z,15.20
2023-06-19T02:18:18.264Z,15.23
2023-06-19T02:19:20.120Z,15.27
2023-06-19T02:20:23.084Z,15.27
2023-06-19T02:21:25.058Z,15.31
2023-06-19T02:22:27.100Z,15.34
2023-06-19T02:23:29.383Z,15.28
2023-06-19T02:24:31.054Z,15.21
2023-06-19T02:25:32.655Z,15.10
2023-06-19T02:26:34.600Z,15.04
2023-06-19T02:27:36.198Z,15.01
2023-06-19T02:28:37.837Z,15.09
2023-06-19T02:29:40.647Z,15.20
2023-06-19T02:30:42.296Z,15.28
2023-06-19T02:31:45.071Z,15.38
2023-06-19T02:32:46.734Z,15.45
2023-06-19T02:33:48.360Z,15.51
2023-06-19T02:34:49.958Z,15.52
2023-06-19T02:35:51.532Z,15.53
2023-06-19T02:36:53.128Z,15.56
2023-06-19T02:37:54.724Z,15.55
2023-06-19T02:38:56.320Z,15.56
2023-06-19T02:39:57.892Z,15.58
2023-06-19T02:40:59.428Z,15.60
2023-06-19T02:42:01.591Z,15.62
2023-06-19T02:43:03.800Z,15.66
2023-06-19T02:44:05.391Z,15.70
2023-06-19T02:45:07.528Z,15.67
2023-06-19T02:46:12.209Z,15.52
2023-06-19T02:47:16.400Z,15.47
2023-06-19T02:48:17.983Z,15.52
2023-06-19T02:49:19.657Z,15.55
2023-06-19T02:50:21.634Z,15.56
2023-06-19T02:51:23.531Z,15.57
2023-06-19T02:52:25.525Z,15.62
2023-06-19T02:53:27.147Z,15.69
2023-06-19T02:54:28.775Z,15.79
2023-06-19T02:55:30.381Z,15.74
2023-06-19T02:56:32.053Z,15.60
2023-06-19T02:57:33.979Z,15.37
2023-06-19T02:58:35.612Z,15.24
2023-06-19T02:59:37.294Z,15.29
2023-06-19T03:00:38.896Z,15.40
2023-06-19T03:01:40.594Z,15.49
2023-06-19T03:02:42.359Z,15.52
2023-06-19T03:03:44.211Z,15.62
2023-06-19T03:04:47.019Z,15.65
2023-06-19T03:05:48.623Z,15.72
2023-06-19T03:06:50.656Z,15.82
2023-06-19T03:07:52.254Z,15.89
2023-06-19T03:08:53.889Z,15.95
2023-06-19T03:09:55.786Z,16.01
2023-06-19T03:10:57.454Z,16.07
2023-06-19T03:11:59.701Z,16.10
2023-06-19T03:13:01.510Z,16.15
2023-06-19T03:14:03.139Z,16.22
2023-06-19T03:15:05.321Z,16.26
2023-06-19T03:16:08.806Z,16.24
2023-06-19T03:17:10.931Z,16.18
2023-06-19T03:18:12.726Z,16.20
2023-06-19T03:19:15.116Z,16.26
2023-06-19T03:20:16.745Z,16.31
2023-06-19T03:21:25.462Z,16.38
2023-06-19T03:22:27.423Z,16.44
2023-06-19T03:23:29.211Z,16.50
2023-06-19T03:24:30.837Z,16.55
2023-06-19T03:25:45.826Z,16.59
2023-06-19T03:26:47.562Z,16.63
2023-06-19T03:27:49.432Z,16.67
2023-06-19T03:28:51.232Z,16.70
2023-06-19T03:29:54.435Z,16.75
2023-06-19T03:31:04.041Z,16.80
2023-06-19T03:32:06.190Z,16.78
2023-06-19T03:33:09.103Z,16.68
2023-06-19T03:34:18.328Z,16.43
2023-06-19T03:35:20.002Z,16.18
2023-06-19T03:36:22.046Z,15.98
2023-06-19T03:37:25.286Z,15.87
2023-06-19T03:38:27.721Z,15.72
2023-06-19T03:39:29.740Z,15.67
2023-06-19T03:40:38.054Z,15.64
2023-06-19T03:41:45.249Z,15.65
2023-06-19T03:42:46.893Z,15.71
2023-06-19T03:43:49.460Z,15.77
2023-06-19T03:44:51.961Z,15.84
2023-06-19T03:45:53.555Z,15.90
2023-06-19T03:46:55.842Z,15.91
2023-06-19T03:47:57.549Z,15.74
2023-06-19T03:48:59.191Z,15.70
2023-06-19T03:50:15.767Z,15.64
2023-06-19T03:51:23.131Z,15.70
2023-06-19T03:52:25.376Z,15.67
2023-06-19T03:53:26.994Z,15.62
2023-06-19T03:54:29.385Z,15.63
2023-06-19T03:55:31.067Z,15.65
2023-06-19T03:56:33.012Z,15.59
2023-06-19T03:57:34.622Z,15.64
2023-06-19T03:58:36.234Z,15.74
2023-06-19T03:59:37.934Z,15.86
2023-06-19T04:00:39.567Z,15.81
2023-06-19T04:01:41.237Z,15.71
2023-06-19T04:02:42.899Z,15.64
2023-06-19T04:03:44.618Z,15.57
2023-06-19T04:04:46.271Z,15.49
2023-06-19T04:05:47.955Z,15.55
2023-06-19T04:06:49.575Z,15.61
2023-06-19T04:07:51.436Z,15.64
2023-06-19T04:08:53.214Z,15.57
2023-06-19T04:09:55.350Z,15.52
2023-06-19T04:10:56.990Z,15.31
2023-06-19T04:11:58.620Z,15.29
2023-06-19T04:13:00.337Z,15.25
2023-06-19T04:14:02.082Z,15.39
2023-06-19T04:15:05.648Z,15.42
2023-06-19T04:16:08.803Z,15.58
2023-06-19T04:17:10.539Z,15.67
2023-06-19T04:18:12.229Z,15.69
2023-06-19T04:19:14.040Z,15.75
2023-06-19T04:20:15.934Z,15.79
2023-06-19T04:21:17.562Z,15.91
2023-06-19T04:22:19.168Z,16.01
2023-06-19T04:23:20.781Z,16.07
2023-06-19T04:24:22.453Z,16.16
2023-06-19T04:25:24.110Z,16.12
2023-06-19T04:26:26.091Z,16.14
2023-06-19T04:27:27.679Z,16.25
2023-06-19T04:28:29.266Z,16.27
2023-06-19T04:29:30.901Z,16.34
2023-06-19T04:30:32.610Z,16.26
2023-06-19T04:31:34.536Z,16.30
2023-06-19T04:32:36.489Z,16.32
2023-06-19T04:33:38.559Z,16.40
2023-06-19T04:34:40.294Z,16.42
2023-06-19T04:35:41.926Z,16.46
2023-06-19T04:36:43.751Z,16.43
2023-06-19T04:37:45.344Z,16.45
2023-06-19T04:38:46.982Z,16.50
2023-06-19T04:39:48.662Z,16.54
2023-06-19T04:40:53.571Z,16.57
2023-06-19T04:41:55.154Z,16.58
2023-06-19T04:42:56.737Z,16.61
2023-06-19T04:43:58.284Z,16.63
2023-06-19T04:44:59.912Z,16.62
2023-06-19T04:46:01.648Z,16.65
2023-06-19T04:47:03.331Z,16.71
2023-06-19T04:48:05.402Z,16.68
2023-06-19T04:49:07.277Z,16.63
2023-06-19T04:50:09.140Z,16.61
2023-06-19T04:51:10.765Z,16.62
2023-06-19T04:52:12.491Z,16.61
2023-06-19T04:53:14.050Z,16.59
2023-06-19T04:54:15.747Z,16.66
2023-06-19T04:55:17.426Z,16.80
2023-06-19T04:56:19.066Z,16.86
2023-06-19T04:57:20.683Z,16.93
2023-06-19T04:58:23.052Z,16.97
2023-06-19T04:59:24.707Z,17.04
2023-06-19T05:00:26.589Z,17.06
2023-06-19T05:01:28.437Z,17.04
2023-06-19T05:02:30.065Z,17.01
2023-06-19T05:03:31.674Z,17.07
2023-06-19T05:04:33.337Z,17.16
2023-06-19T05:05:35.058Z,17.25
2023-06-19T05:06:36.909Z,17.30
2023-06-19T05:07:38.613Z,17.27
2023-06-19T05:08:40.197Z,17.21
2023-06-19T05:09:41.845Z,17.23
2023-06-19T05:10:46.250Z,17.31
2023-06-19T05:11:48.577Z,17.41
2023-06-19T05:12:50.188Z,17.49
2023-06-19T05:13:51.945Z,17.52
2023-06-19T05:14:53.567Z,17.58
2023-06-19T05:15:55.222Z,17.67
2023-06-19T05:16:56.829Z,17.75
2023-06-19T05:17:58.511Z,17.85
2023-06-19T05:19:00.229Z,17.95
2023-06-19T05:20:01.823Z,17.95
2023-06-19T05:21:03.645Z,18.04
2023-06-19T05:22:05.583Z,18.12
2023-06-19T05:23:07.189Z,18.18
2023-06-19T05:24:08.801Z,18.31
2023-06-19T05:25:10.725Z,18.43
2023-06-19T05:26:12.552Z,18.49
2023-06-19T05:27:14.311Z,18.65
2023-06-19T05:28:15.940Z,18.75
2023-06-19T05:29:17.619Z,18.82
2023-06-19T05:30:19.347Z,18.90
2023-06-19T05:31:20.903Z,18.94
2023-06-19T05:32:22.521Z,19.02
2023-06-19T05:33:24.134Z,19.05
2023-06-19T05:34:25.780Z,19.09
2023-06-19T05:35:27.438Z,19.23
2023-06-19T05:36:29.034Z,19.19
2023-06-19T05:37:30.657Z,19.31
2023-06-19T05:38:32.391Z,19.38
2023-06-19T05:39:34.016Z,19.45
2023-06-19T05:40:35.634Z,19.54
2023-06-19T05:41:37.377Z,19.59
2023-06-19T05:42:39.097Z,19.66
2023-06-19T05:43:40.729Z,19.72
2023-06-19T05:44:42.287Z,19.76
2023-06-19T05:45:43.936Z,19.84
2023-06-19T05:46:45.571Z,19.96
2023-06-19T05:47:47.206Z,20.11
2023-06-19T05:48:48.917Z,20.14
2023-06-19T05:49:50.555Z,20.15
2023-06-19T05:50:52.603Z,20.07
2023-06-19T05:51:54.279Z,20.08
2023-06-19T05:52:55.867Z,20.18
2023-06-19T05:53:57.508Z,20.29
2023-06-19T05:54:59.189Z,20.41
2023-06-19T05:56:00.986Z,20.54
2023-06-19T05:57:02.576Z,20.68
2023-06-19T05:58:04.208Z,20.69
2023-06-19T05:59:06.030Z,20.79
2023-06-19T06:00:08.198Z,20.81
2023-06-19T06:01:14.465Z,20.83
2023-06-19T06:02:16.138Z,20.91
2023-06-19T06:03:17.727Z,21.05
2023-06-19T06:04:19.369Z,21.14
2023-06-19T06:05:20.993Z,21.14
2023-06-19T06:06:24.362Z,21.10
2023-06-19T06:07:25.944Z,21.16
2023-06-19T06:08:27.503Z,21.20
2023-06-19T06:09:29.090Z,21.15
2023-06-19T06:10:30.701Z,21.11
2023-06-19T06:11:32.332Z,21.01
2023-06-19T06:12:36.767Z,21.02
2023-06-19T06:13:38.403Z,21.13
2023-06-19T06:14:41.710Z,21.26
2023-06-19T06:15:43.286Z,21.18
2023-06-19T06:16:45.072Z,21.14
2023-06-19T06:17:46.753Z,21.11
2023-06-19T06:18:48.368Z,21.16
2023-06-19T06:19:50.000Z,21.20
2023-06-19T06:20:51.593Z,21.12
2023-06-19T06:21:53.183Z,21.08
2023-06-19T06:22:54.810Z,21.03
2023-06-19T06:23:56.462Z,20.99
2023-06-19T06:24:58.056Z,21.04
2023-06-19T06:25:59.680Z,21.06
2023-06-19T06:27:01.274Z,21.14
2023-06-19T06:28:02.901Z,21.27
2023-06-19T06:29:04.505Z,21.34
2023-06-19T06:30:06.760Z,21.46
2023-06-19T06:31:08.375Z,21.58
2023-06-19T06:32:10.399Z,21.73
2023-06-19T06:33:12.157Z,21.80
2023-06-19T06:34:14.283Z,21.89
2023-06-19T06:35:16.737Z,21.85
2023-06-19T06:36:29.734Z,21.89
2023-06-19T06:37:36.860Z,21.99
2023-06-19T06:38:38.457Z,22.13
2023-06-19T06:39:40.125Z,22.25
2023-06-19T06:40:41.691Z,22.37
2023-06-19T06:41:43.272Z,22.43
2023-06-19T06:42:47.746Z,22.46
2023-06-19T06:43:49.328Z,22.56
2023-06-19T06:44:50.903Z,22.67
2023-06-19T06:45:52.555Z,22.78
2023-06-19T06:46:54.177Z,22.86
2023-06-19T06:47:56.110Z,22.91
2023-06-19T06:48:57.781Z,22.95
2023-06-19T06:49:59.521Z,22.99
2023-06-19T06:51:01.121Z,23.14
2023-06-19T06:52:06.205Z,23.27
2023-06-19T06:53:07.829Z,23.31
2023-06-19T06:54:09.409Z,23.41
2023-06-19T06:55:11.120Z,23.49
2023-06-19T06:56:12.785Z,23.61
2023-06-19T06:57:14.713Z,23.69
2023-06-19T06:58:16.870Z,23.62
2023-06-19T06:59:18.423Z,23.63
2023-06-19T07:00:20.392Z,23.70
2023-06-19T07:01:22.100Z,23.75
2023-06-19T07:02:23.787Z,23.82
2023-06-19T07:03:25.653Z,23.88
2023-06-19T07:04:27.354Z,23.92
2023-06-19T07:05:28.966Z,23.96
2023-06-19T07:06:32.706Z,24.02
2023-06-19T07:07:34.281Z,23.99
2023-06-19T07:08:35.907Z,24.05
2023-06-19T07:09:37.465Z,24.10
2023-06-19T07:10:39.121Z,24.03
2023-06-19T07:11:40.752Z,23.96
2023-06-19T07:12:49.043Z,23.94
2023-06-19T07:13:50.888Z,23.89
2023-06-19T07:14:55.420Z,23.80
2023-06-19T07:15:57.012Z,23.84
2023-06-19T07:16:58.731Z,23.89
2023-06-19T07:18:00.439Z,23.92
2023-06-19T07:19:02.043Z,23.93
2023-06-19T07:20:04.218Z,23.96
2023-06-19T07:21:11.914Z,24.02
2023-06-19T07:22:14.789Z,23.99
2023-06-19T07:23:16.911Z,23.90
2023-06-19T07:24:18.999Z,23.97
2023-06-19T07:25:20.796Z,24.04
2023-06-19T07:26:22.450Z,24.09
2023-06-19T07:27:24.075Z,24.14
2023-06-19T07:28:25.664Z,24.21
2023-06-19T07:29:27.240Z,24.29
2023-06-19T07:30:28.878Z,24.25
2023-06-19T07:31:30.521Z,24.16
2023-06-19T07:32:32.159Z,24.12
2023-06-19T07:33:33.795Z,24.08
2023-06-19T07:34:35.433Z,24.06
2023-06-19T07:35:37.075Z,24.25
2023-06-19T07:36:38.614Z,24.43
2023-06-19T07:37:40.232Z,24.55
2023-06-19T07:38:43.276Z,24.66
2023-06-19T07:39:49.472Z,24.76
2023-06-19T07:40:51.045Z,24.87
2023-06-19T07:41:52.691Z,24.80
2023-06-19T07:42:54.270Z,24.93
2023-06-19T07:43:55.881Z,24.99
2023-06-19T07:44:57.424Z,24.83
2023-06-19T07:45:59.075Z,24.73
2023-06-19T07:47:00.703Z,24.77
2023-06-19T07:48:02.496Z,24.87
2023-06-19T07:49:04.199Z,24.95
2023-06-19T07:50:06.401Z,24.95
2023-06-19T07:51:08.032Z,25.01
2023-06-19T07:52:09.622Z,25.06
2023-06-19T07:53:11.491Z,25.19
2023-06-19T07:54:13.064Z,25.18
2023-06-19T07:55:14.812Z,25.00
2023-06-19T07:56:16.431Z,25.07
2023-06-19T07:57:18.097Z,25.12
2023-06-19T07:58:19.716Z,25.06
2023-06-19T07:59:21.523Z,25.07
2023-06-19T08:00:24.206Z,25.08
2023-06-19T08:01:25.984Z,25.11
2023-06-19T08:02:27.706Z,25.06
2023-06-19T08:03:29.557Z,25.07
2023-06-19T08:04:32.619Z,25.11
2023-06-19T08:05:36.239Z,25.11
2023-06-19T08:06:38.161Z,25.17
2023-06-19T08:07:39.926Z,25.22
2023-06-19T08:08:41.493Z,25.21
2023-06-19T08:09:43.149Z,25.19
2023-06-19T08:10:46.762Z,25.13
2023-06-19T08:11:48.424Z,25.12
2023-06-19T08:12:51.655Z,25.14
2023-06-19T08:13:55.816Z,25.07
2023-06-19T08:14:57.384Z,24.94
2023-06-19T08:15:58.942Z,24.96
2023-06-19T08:17:00.544Z,25.02
2023-06-19T08:18:02.158Z,25.02
2023-06-19T08:19:03.778Z,25.07
2023-06-19T08:20:06.138Z,25.04
2023-06-19T08:21:07.749Z,25.01
2023-06-19T08:22:09.596Z,25.07
2023-06-19T08:23:11.219Z,25.18
2023-06-19T08:24:12.833Z,25.22
2023-06-19T08:25:14.460Z,25.19
2023-06-19T08:26:16.042Z,25.06
2023-06-19T08:27:17.677Z,25.08
2023-06-19T08:28:19.237Z,25.10
2023-06-19T08:29:21.108Z,25.15
2023-06-19T08:30:22.902Z,25.21
2023-06-19T08:31:24.750Z,25.25
2023-06-19T08:32:26.373Z,25.31
2023-06-19T08:33:28.023Z,25.40
2023-06-19T08:34:29.737Z,25.50
2023-06-19T08:35:31.344Z,25.59
2023-06-19T08:36:33.803Z,25.66
2023-06-19T08:37:35.414Z,25.73
2023-06-19T08:38:36.986Z,25.74
2023-06-19T08:39:38.540Z,25.64
2023-06-19T08:40:43.110Z,25.64
2023-06-19T08:41:44.755Z,25.59
2023-06-19T08:42:46.337Z,25.58
2023-06-19T08:43:48.092Z,25.64
2023-06-19T08:44:50.282Z,25.63
2023-06-19T08:46:11.531Z,25.48
2023-06-19T08:47:13.204Z,25.49
2023-06-19T08:48:15.143Z,25.57
2023-06-19T08:49:16.824Z,25.60
2023-06-19T08:50:20.422Z,25.59
2023-06-19T08:51:22.060Z,25.63
2023-06-19T08:52:23.662Z,25.58
2023-06-19T08:53:25.295Z,25.46
2023-06-19T08:54:26.884Z,25.60
2023-06-19T08:55:28.441Z,25.60
2023-06-19T08:56:30.361Z,25.62
2023-06-19T08:57:42.091Z,25.77
2023-06-19T08:58:44.107Z,25.92
2023-06-19T08:59:52.326Z,26.06
2023-06-19T09:00:53.922Z,26.11
2023-06-19T09:01:56.142Z,26.15
2023-06-19T09:03:12.368Z,26.15
2023-06-19T09:04:15.396Z,26.22
2023-06-19T09:05:18.685Z,26.34
2023-06-19T09:06:20.885Z,26.37
2023-06-19T09:07:22.678Z,26.43
2023-06-19T09:08:24.351Z,26.52
2023-06-19T09:09:29.005Z,26.55
2023-06-19T09:10:30.628Z,26.62
2023-06-19T09:11:32.263Z,26.62
2023-06-19T09:12:33.858Z,26.74
2023-06-19T09:13:37.835Z,26.75
2023-06-19T09:14:40.240Z,26.75
2023-06-19T09:15:41.963Z,26.78
2023-06-19T09:16:43.572Z,26.74
2023-06-19T09:17:45.180Z,26.75
2023-06-19T09:18:53.218Z,26.86
2023-06-19T09:19:57.056Z,26.93
2023-06-19T09:20:59.222Z,26.92
2023-06-19T09:22:05.611Z,26.92
2023-06-19T09:23:07.240Z,26.95
2023-06-19T09:24:09.474Z,27.02
2023-06-19T09:25:12.163Z,27.14
2023-06-19T09:26:16.361Z,27.14
2023-06-19T09:27:20.056Z,27.23
2023-06-19T09:28:23.554Z,27.36
2023-06-19T09:29:27.158Z,27.43
2023-06-19T09:30:28.769Z,27.48
2023-06-19T09:31:34.884Z,27.60
2023-06-19T09:32:36.470Z,27.67
2023-06-19T09:33:38.850Z,27.69
2023-06-19T09:34:40.512Z,27.79
2023-06-19T09:35:42.179Z,27.85
2023-06-19T09:36:46.596Z,27.96
2023-06-19T09:37:48.408Z,28.02
2023-06-19T09:38:51.867Z,28.01
2023-06-19T09:39:55.642Z,28.00
2023-06-19T09:41:01.043Z,28.12
2023-06-19T09:42:03.645Z,28.21
2023-06-19T09:43:08.000Z,28.25
2023-06-19T09:44:11.595Z,28.40
2023-06-19T09:45:14.141Z,28.54
2023-06-19T09:46:17.902Z,28.50
2023-06-19T09:47:25.773Z,28.28
2023-06-19T09:48:33.226Z,28.11
2023-06-19T09:49:36.508Z,28.18
2023-06-19T09:50:40.394Z,28.38
2023-06-19T09:51:42.963Z,28.44
2023-06-19T09:52:45.311Z,28.54
2023-06-19T09:53:48.591Z,28.66
2023-06-19T09:54:54.613Z,28.74
2023-06-19T09:55:56.184Z,28.81
2023-06-19T09:56:59.463Z,28.91
2023-06-19T09:58:02.852Z,28.99
2023-06-19T09:59:05.549Z,29.06
2023-06-19T10:00:10.609Z,29.12
2023-06-19T10:01:15.173Z,29.20
2023-06-19T10:02:18.292Z,29.07
2023-06-19T10:03:20.185Z,28.99
2023-06-19T10:04:21.998Z,28.92
2023-06-19T10:05:31.305Z,28.99
2023-06-19T10:06:33.167Z,29.02
2023-06-19T10:07:36.558Z,29.08
2023-06-19T10:08:42.996Z,29.07
2023-06-19T10:09:56.849Z,29.10
2023-06-19T10:10:58.642Z,29.07
2023-06-19T10:12:00.555Z,29.09
2023-06-19T10:13:16.199Z,28.94
2023-06-19T10:14:22.322Z,29.05
2023-06-19T10:15:29.334Z,29.16
2023-06-19T10:16:32.991Z,29.21
2023-06-19T10:17:34.806Z,29.23
2023-06-19T10:18:46.788Z,29.27
2023-06-19T10:19:51.911Z,29.32
2023-06-19T10:20:55.613Z,29.40
2023-06-19T10:21:57.963Z,29.40
2023-06-19T10:23:03.866Z,29.48
2023-06-19T10:24:06.909Z,29.19
2023-06-19T10:25:08.754Z,29.17
2023-06-19T10:26:16.589Z,29.36
2023-06-19T10:27:22.843Z,29.41
2023-06-19T10:28:34.399Z,29.50
2023-06-19T10:29:40.894Z,29.55
2023-06-19T10:30:44.839Z,29.62
2023-06-19T10:31:46.521Z,29.62
2023-06-19T10:32:49.596Z,29.56
2023-06-19T10:33:51.288Z,29.52
2023-06-19T10:34:52.919Z,29.39
2023-06-19T10:35:55.423Z,29.46
2023-06-19T10:36:58.197Z,29.50
2023-06-19T10:37:59.825Z,29.47
2023-06-19T10:39:01.400Z,29.39
2023-06-19T10:40:03.280Z,29.42
2023-06-19T10:41:04.891Z,29.50
2023-06-19T10:42:08.341Z,29.59
2023-06-19T10:43:09.928Z,29.63
2023-06-19T10:44:11.651Z,29.74
2023-06-19T10:45:15.239Z,29.82
2023-06-19T10:46:16.872Z,29.84
2023-06-19T10:47:18.542Z,29.90
2023-06-19T10:48:24.637Z,29.99
2023-06-19T10:49:26.255Z,30.00
2023-06-19T10:50:28.471Z,30.09
2023-06-19T10:51:30.132Z,30.11
2023-06-19T10:52:32.168Z,30.18
2023-06-19T10:53:34.345Z,30.09
2023-06-19T10:54:35.907Z,30.18
2023-06-19T10:55:37.476Z,30.28
2023-06-19T10:56:39.104Z,30.32
2023-06-19T10:57:46.994Z,30.41
2023-06-19T10:58:48.764Z,30.45
2023-06-19T10:59:52.292Z,30.46
2023-06-19T11:00:54.244Z,30.52
2023-06-19T11:01:55.937Z,30.61
2023-06-19T11:02:59.098Z,30.67
2023-06-19T11:04:03.451Z,30.70
2023-06-19T11:05:05.601Z,30.74
2023-06-19T11:06:07.271Z,30.59
2023-06-19T11:07:09.185Z,30.54
2023-06-19T11:08:10.953Z,30.51
2023-06-19T11:09:14.333Z,30.57
2023-06-19T11:10:21.310Z,30.67
2023-06-19T11:11:23.456Z,30.67
2023-06-19T11:12:25.187Z,30.68
2023-06-19T11:13:26.825Z,30.72
2023-06-19T11:14:30.744Z,30.68
2023-06-19T11:15:35.306Z,30.71
2023-06-19T11:16:42.285Z,30.56
2023-06-19T11:17:44.093Z,30.59
2023-06-19T11:18:45.841Z,30.70
2023-06-19T11:19:47.489Z,30.86
2023-06-19T11:20:50.615Z,30.88
2023-06-19T11:21:53.349Z,30.91
2023-06-19T11:23:01.886Z,30.95
2023-06-19T11:24:03.994Z,30.96
2023-06-19T11:25:06.432Z,30.96
2023-06-19T11:26:08.003Z,31.00
2023-06-19T11:27:18.158Z,31.04
2023-06-19T11:28:19.776Z,31.01
2023-06-19T11:29:24.362Z,30.92
2023-06-19T11:30:32.582Z,30.93
2023-06-19T11:31:34.574Z,30.92
2023-06-19T11:32:38.601Z,30.95
2023-06-19T11:33:40.218Z,30.93
2023-06-19T11:34:42.263Z,30.95
2023-06-19T11:35:48.851Z,30.99
2023-06-19T11:36:50.441Z,31.02
2023-06-19T11:37:52.641Z,31.09
2023-06-19T11:38:54.512Z,31.08
2023-06-19T11:39:58.005Z,30.89
2023-06-19T11:40:59.657Z,30.96
2023-06-19T11:42:01.211Z,31.07
2023-06-19T11:43:03.008Z,31.10
2023-06-19T11:44:10.417Z,31.08
2023-06-19T11:45:12.896Z,31.11
2023-06-19T11:46:14.495Z,31.17
2023-06-19T11:47:19.584Z,31.15
2023-06-19T11:48:26.133Z,31.25
2023-06-19T11:49:28.550Z,31.27
2023-06-19T11:50:31.420Z,31.15
2023-06-19T11:51:33.307Z,31.05
2023-06-19T11:52:34.903Z,31.12
2023-06-19T11:53:36.930Z,31.15
2023-06-19T11:54:38.486Z,31.13
2023-06-19T11:55:40.162Z,31.05
2023-06-19T11:56:42.028Z,30.94
2023-06-19T11:57:43.618Z,30.92
2023-06-19T11:58:45.205Z,30.98
2023-06-19T11:59:46.797Z,31.02
2023-06-19T12:00:48.901Z,31.01
2023-06-19T12:01:50.465Z,30.98
2023-06-19T12:02:52.099Z,30.93
2023-06-19T12:03:53.891Z,30.95
2023-06-19T12:04:55.652Z,30.91
2023-06-19T12:05:57.338Z,30.77
2023-06-19T12:06:59.157Z,30.63
2023-06-19T12:08:00.821Z,30.63
2023-06-19T12:09:02.603Z,30.60
2023-06-19T12:10:05.299Z,30.65
2023-06-19T12:11:06.935Z,30.78
2023-06-19T12:12:09.067Z,30.73
2023-06-19T12:13:10.680Z,30.71
2023-06-19T12:14:12.325Z,30.76
2023-06-19T12:15:13.996Z,30.91
2023-06-19T12:16:16.126Z,31.06
2023-06-19T12:17:17.791Z,31.08
2023-06-19T12:18:19.389Z,30.83
2023-06-19T12:19:21.379Z,30.87
2023-06-19T12:20:23.314Z,30.86
2023-06-19T12:21:34.214Z,30.80
2023-06-19T12:22:39.405Z,30.84
2023-06-19T12:23:41.001Z,30.90
2023-06-19T12:24:42.574Z,30.69
2023-06-19T12:25:44.409Z,30.37
2023-06-19T12:26:46.036Z,30.26
2023-06-19T12:27:47.711Z,30.18
2023-06-19T12:28:50.852Z,30.08
2023-06-19T12:29:53.616Z,30.07
2023-06-19T12:30:55.192Z,30.04
2023-06-19T12:32:03.750Z,29.91
2023-06-19T12:33:05.432Z,29.86
2023-06-19T12:34:21.014Z,29.96
2023-06-19T12:35:28.464Z,29.89
2023-06-19T12:36:30.322Z,29.78
2023-06-19T12:37:32.585Z,29.93
2023-06-19T12:38:34.157Z,30.12
2023-06-19T12:39:35.728Z,30.12
2023-06-19T12:40:38.376Z,30.05
2023-06-19T12:41:39.959Z,30.05
2023-06-19T12:42:41.594Z,30.11
2023-06-19T12:43:43.202Z,29.97
2023-06-19T12:44:44.910Z,29.89
2023-06-19T12:45:46.540Z,29.94
2023-06-19T12:46:48.155Z,30.09
2023-06-19T12:47:49.823Z,30.21
2023-06-19T12:48:51.450Z,30.34
2023-06-19T12:49:53.065Z,30.44
2023-06-19T12:50:54.649Z,30.51
2023-06-19T12:51:56.214Z,30.45
2023-06-19T12:52:57.740Z,30.46
2023-06-19T12:53:59.300Z,30.34
2023-06-19T12:55:00.922Z,30.23
2023-06-19T12:56:06.059Z,30.26
2023-06-19T12:57:10.755Z,30.25
2023-06-19T12:58:12.397Z,30.29
2023-06-19T12:59:14.049Z,30.18
2023-06-19T13:00:16.069Z,30.24
2023-06-19T13:01:17.862Z,30.38
2023-06-19T13:02:19.609Z,30.47
2023-06-19T13:03:21.272Z,30.48
2023-06-19T13:04:23.017Z,30.51
2023-06-19T13:05:24.600Z,30.58
2023-06-19T13:06:26.235Z,30.65
2023-06-19T13:07:27.815Z,30.77
2023-06-19T13:08:29.389Z,30.81
2023-06-19T13:09:30.968Z,30.85
2023-06-19T13:10:32.670Z,30.75
2023-06-19T13:11:34.513Z,30.81
2023-06-19T13:12:36.085Z,30.87
2023-06-19T13:13:37.659Z,30.88
2023-06-19T13:14:39.284Z,30.78
2023-06-19T13:15:41.022Z,30.79
2023-06-19T13:16:46.564Z,30.79
2023-06-19T13:17:48.969Z,30.76
2023-06-19T13:18:50.666Z,30.79
2023-06-19T13:19:52.242Z,30.82
2023-06-19T13:20:53.832Z,30.77
2023-06-19T13:21:55.445Z,30.70
2023-06-19T13:22:57.051Z,30.73
2023-06-19T13:23:58.642Z,30.75
2023-06-19T13:25:00.290Z,30.71
2023-06-19T13:26:01.846Z,30.50
2023-06-19T13:27:03.611Z,30.34
2023-06-19T13:28:05.195Z,30.31